Time;durP1;ratioP1;P1;durP2;ratioP2;P2;SDS_P1;SDS_P2;PMS_P1;PMS_P2;Temp;Humidity;BMP_temperature;BMP_pressure;BME280_temperature;BME280_humidity;BME280_pressure;Samples;Min_cycle;Max_cycle;Signal;HPM_P1;HPM_P2
2023/04/23 00:01:41;;;;;;;26.33;9.10;;;;;;;15.40;30.18;99057.69;4983247;28;20055;-69
2023/04/23 00:04:08;;;;;;;32.92;9.48;;;;;;;15.46;30.39;99064.06;4983201;28;20049;-68
2023/04/23 00:06:37;;;;;;;28.70;8.90;;;;;;;15.57;30.46;99066.16;4983135;28;20049;-69
2023/04/23 00:09:05;;;;;;;23.17;8.93;;;;;;;15.47;30.27;99066.53;4983177;28;20056;-68
2023/04/23 00:11:31;;;;;;;28.90;9.45;;;;;;;15.40;30.51;99073.72;4956832;28;20481;-68
2023/04/23 00:13:59;;;;;;;31.77;10.35;;;;;;;15.46;30.78;99072.94;4940973;28;20050;-68
2023/04/23 00:16:26;;;;;;;34.55;10.77;;;;;;;15.37;30.67;99071.44;4956703;28;20102;-69
2023/04/23 00:18:52;;;;;;;25.05;9.43;;;;;;;15.38;30.71;99082.97;4992496;28;20468;-69
2023/04/23 00:21:18;;;;;;;21.95;9.48;;;;;;;15.44;30.56;99074.16;4960006;28;20074;-69
2023/04/23 00:23:45;;;;;;;34.30;9.63;;;;;;;15.35;30.53;99075.31;4943835;28;20504;-69
2023/04/23 00:26:12;;;;;;;20.65;7.75;;;;;;;15.40;30.61;99083.59;4959895;28;20050;-69
2023/04/23 00:28:39;;;;;;;19.08;8.07;;;;;;;15.42;30.51;99078.88;4941793;28;20051;-68
2023/04/23 00:31:06;;;;;;;24.88;8.32;;;;;;;15.37;30.32;99087.50;4924940;28;20130;-68
2023/04/23 00:33:33;;;;;;;23.17;8.13;;;;;;;15.24;30.57;99088.28;4940570;28;20153;-69
2023/04/23 00:35:59;;;;;;;24.77;8.52;;;;;;;15.22;30.75;99086.81;4972727;28;20153;-69
2023/04/23 00:38:26;;;;;;;29.92;9.27;;;;;;;15.22;30.89;99082.28;4937167;29;20059;-69
2023/04/23 00:40:54;;;;;;;21.55;9.90;;;;;;;15.21;31.06;99077.13;4921699;29;20493;-69
2023/04/23 00:43:19;;;;;;;43.53;11.20;;;;;;;15.22;31.31;99086.81;4946031;28;20073;-70
2023/04/23 00:45:46;;;;;;;27.27;11.00;;;;;;;15.35;31.18;99091.38;4959450;28;20520;-68
2023/04/23 00:48:13;;;;;;;27.45;9.38;;;;;;;15.31;31.00;99088.28;4943852;28;20062;-69
2023/04/23 00:50:39;;;;;;;26.77;10.40;;;;;;;15.18;31.15;99094.44;4943622;28;20047;-71
2023/04/23 00:53:07;;;;;;;23.90;9.98;;;;;;;15.15;31.25;99092.16;4943272;28;20180;-70
2023/04/23 00:55:34;;;;;;;32.25;11.18;;;;;;;15.12;31.65;99078.34;4928094;28;20053;-69
2023/04/23 00:58:01;;;;;;;30.80;11.13;;;;;;;15.27;31.78;99095.06;4959965;28;20149;-69
2023/04/23 01:00:28;;;;;;;33.78;10.50;;;;;;;15.15;31.91;99097.50;4962542;28;20061;-69
2023/04/23 01:02:56;;;;;;;32.92;10.88;;;;;;;15.19;31.86;99090.72;4978648;28;20510;-70
2023/04/23 01:05:24;;;;;;;27.67;12.70;;;;;;;15.20;31.81;99091.53;4971477;28;20054;-69
2023/04/23 01:07:50;;;;;;;31.63;11.70;;;;;;;15.05;32.14;99096.22;4981698;28;20144;-69
2023/04/23 01:10:17;;;;;;;27.73;11.15;;;;;;;15.00;31.98;99099.50;4998031;28;20057;-69
2023/04/23 01:12:43;;;;;;;25.75;10.52;;;;;;;14.98;32.13;99100.72;4996270;28;20095;-70
2023/04/23 01:15:10;;;;;;;28.98;10.90;;;;;;;14.98;32.17;99092.69;5028869;28;20454;-70
2023/04/23 01:17:37;;;;;;;30.83;10.93;;;;;;;14.91;31.95;99100.66;5001858;28;20052;-69
2023/04/23 01:20:05;;;;;;;28.83;11.52;;;;;;;15.05;32.15;99104.25;4992066;28;20977;-69
2023/04/23 01:22:36;;;;;;;23.48;10.98;;;;;;;15.12;32.09;99103.25;4959435;28;20610;-69
2023/04/23 01:25:03;;;;;;;25.50;11.48;;;;;;;14.96;31.98;99094.75;4976581;28;20050;-70
2023/04/23 01:27:31;;;;;;;26.38;10.35;;;;;;;15.02;32.02;99096.63;4976289;28;20049;-70
2023/04/23 01:29:59;;;;;;;29.00;11.57;;;;;;;14.97;31.97;99096.38;4977427;28;20123;-69
2023/04/23 01:32:26;;;;;;;34.65;11.00;;;;;;;14.91;32.09;99106.00;4978199;28;20046;-69
2023/04/23 01:34:53;;;;;;;32.63;12.15;;;;;;;14.90;32.28;99107.03;4962264;28;20103;-69
2023/04/23 01:37:20;;;;;;;29.20;11.93;;;;;;;14.98;32.38;99104.22;4962154;28;20085;-68
2023/04/23 01:39:47;;;;;;;33.70;11.40;;;;;;;14.80;32.35;99103.09;4963066;28;20059;-69
2023/04/23 01:42:13;;;;;;;41.75;11.38;;;;;;;14.74;32.35;99098.53;4981561;28;20094;-69
2023/04/23 01:44:39;;;;;;;23.38;10.52;;;;;;;14.66;32.47;99096.84;4965081;28;20520;-69
2023/04/23 01:47:05;;;;;;;37.45;11.68;;;;;;;14.58;32.69;99101.50;4997635;28;20053;-69
2023/04/23 01:49:31;;;;;;;30.60;11.38;;;;;;;14.56;32.79;99100.91;4958438;28;20070;-69
2023/04/23 01:51:57;;;;;;;28.92;12.65;;;;;;;14.57;32.90;99099.88;5010860;28;20061;-69
2023/04/23 01:54:23;;;;;;;22.48;11.15;;;;;;;14.46;32.86;99098.56;5016967;28;20053;-69
2023/04/23 01:56:53;;;;;;;27.65;11.75;;;;;;;14.44;33.20;99107.78;5016994;28;20087;-69
2023/04/23 01:59:21;;;;;;;29.77;12.73;;;;;;;14.46;33.51;99111.09;5017889;28;20061;-69
2023/04/23 02:01:47;;;;;;;34.92;14.13;;;;;;;14.34;33.57;99112.66;5000575;28;20060;-69
2023/04/23 02:04:15;;;;;;;26.90;12.20;;;;;;;14.37;33.99;99112.28;4985183;28;20110;-69
2023/04/23 02:06:44;;;;;;;30.88;11.32;;;;;;;14.36;33.74;99118.66;5017167;28;20056;-68
2023/04/23 02:09:11;;;;;;;27.88;12.70;;;;;;;14.30;33.82;99117.56;5017341;28;20084;-69
2023/04/23 02:11:37;;;;;;;34.00;12.40;;;;;;;14.24;33.88;99120.19;5016993;28;20037;-68
2023/04/23 02:14:05;;;;;;;39.63;13.38;;;;;;;14.32;34.12;99118.19;5032906;28;20148;-68
2023/04/23 02:16:31;;;;;;;37.22;13.38;;;;;;;14.24;34.12;99129.03;4984265;28;20118;-69
2023/04/23 02:18:57;;;;;;;33.33;12.93;;;;;;;14.17;34.27;99120.13;5016628;28;20056;-69
2023/04/23 02:21:26;;;;;;;35.85;13.15;;;;;;;14.29;34.54;99131.13;5035738;28;20048;-69
2023/04/23 02:23:53;;;;;;;34.10;14.30;;;;;;;14.24;34.56;99133.53;5021102;28;20135;-69
2023/04/23 02:26:19;;;;;;;35.40;13.55;;;;;;;14.15;34.69;99138.16;5037702;28;20446;-69
2023/04/23 02:28:45;;;;;;;29.85;13.02;;;;;;;14.11;34.67;99134.25;5025498;28;20209;-69
2023/04/23 02:31:11;;;;;;;31.63;14.75;;;;;;;14.03;34.76;99137.03;5025052;28;20037;-70
2023/04/23 02:33:41;;;;;;;26.77;12.45;;;;;;;14.16;34.88;99137.13;5025458;28;20147;-69
2023/04/23 02:36:11;;;;;;;31.05;14.68;;;;;;;14.07;34.73;99143.63;5025155;28;20036;-69
2023/04/23 02:38:41;;;;;;;37.05;14.85;;;;;;;14.01;34.80;99143.59;5041925;28;20048;-68
2023/04/23 02:41:07;;;;;;;34.03;14.07;;;;;;;14.01;34.69;99143.59;5057709;28;20135;-69
2023/04/23 02:43:34;;;;;;;32.35;13.27;;;;;;;14.07;34.70;99142.84;5057668;28;20048;-69
2023/04/23 02:46:06;;;;;;;29.55;12.23;;;;;;;14.16;34.51;99144.34;5024788;28;20066;-69
2023/04/23 02:48:38;;;;;;;32.55;11.95;;;;;;;14.37;34.30;99152.34;5025597;28;20047;-69
2023/04/23 02:51:06;;;;;;;29.05;11.70;;;;;;;14.20;34.22;99149.09;5024226;28;20052;-69
2023/04/23 02:53:32;;;;;;;32.38;12.85;;;;;;;14.26;34.04;99148.38;5041055;28;20048;-69
2023/04/23 02:56:00;;;;;;;25.98;10.48;;;;;;;14.25;33.83;99148.56;5057646;28;20052;-69
2023/04/23 02:58:26;;;;;;;27.90;11.43;;;;;;;14.34;33.81;99156.25;5024953;28;20051;-69
2023/04/23 03:00:55;;;;;;;29.60;11.07;;;;;;;14.33;34.17;99151.91;5025065;28;20488;-69
2023/04/23 03:03:25;;;;;;;30.45;10.48;;;;;;;14.36;33.82;99164.88;5016454;28;20500;-70
2023/04/23 03:05:52;;;;;;;30.00;14.88;;;;;;;14.36;34.28;99161.38;5000866;28;20052;-69
2023/04/23 03:08:19;;;;;;;38.90;15.50;;;;;;;14.43;34.36;99164.94;5000839;28;20041;-68
2023/04/23 03:10:47;;;;;;;39.75;18.55;;;;;;;14.40;34.40;99168.00;5017159;28;20057;-69
2023/04/23 03:13:14;;;;;;;35.22;14.50;;;;;;;14.36;34.59;99172.06;5000358;28;20049;-70
2023/04/23 03:15:40;;;;;;;32.63;14.93;;;;;;;14.26;34.62;99168.91;4983997;28;20980;-69
2023/04/23 03:18:07;;;;;;;33.85;14.75;;;;;;;14.35;34.63;99176.59;4999980;28;20049;-68
2023/04/23 03:20:34;;;;;;;23.13;11.07;;;;;;;14.46;33.98;99173.38;5000108;28;20041;-69
2023/04/23 03:23:00;;;;;;;27.02;12.98;;;;;;;14.38;34.43;99172.69;4999548;28;20095;-68
2023/04/23 03:25:27;;;;;;;22.80;11.13;;;;;;;14.46;34.18;99177.91;4999882;28;20041;-69
2023/04/23 03:27:54;;;;;;;36.30;14.05;;;;;;;14.46;34.29;99186.75;4984029;28;20124;-68
2023/04/23 03:30:20;;;;;;;27.52;13.23;;;;;;;14.56;34.05;99191.75;5000065;28;20234;-69
2023/04/23 03:32:49;;;;;;;33.40;13.48;;;;;;;14.68;34.08;99187.53;5016697;28;20115;-69
2023/04/23 03:35:16;;;;;;;31.27;13.13;;;;;;;14.47;34.01;99184.88;5052441;28;20056;-69
2023/04/23 03:37:45;;;;;;;28.42;15.18;;;;;;;14.50;34.13;99192.53;5024353;28;20040;-69
2023/04/23 03:40:12;;;;;;;34.50;14.68;;;;;;;14.38;34.40;99181.53;5023937;28;20471;-70
2023/04/23 03:42:41;;;;;;;32.85;13.57;;;;;;;14.43;34.11;99197.00;5056726;28;20044;-68
2023/04/23 03:45:10;;;;;;;30.65;14.65;;;;;;;14.45;34.23;99203.78;5024183;28;20036;-69
2023/04/23 03:47:37;;;;;;;28.52;13.32;;;;;;;14.48;34.17;99206.09;5073385;28;20072;-70
2023/04/23 03:50:03;;;;;;;33.17;13.68;;;;;;;14.60;34.20;99203.72;5023491;28;20044;-69
2023/04/23 03:52:30;;;;;;;29.75;14.02;;;;;;;14.54;33.96;99204.47;5040267;28;20090;-69
2023/04/23 03:54:57;;;;;;;24.48;13.55;;;;;;;14.65;33.60;99209.31;5040069;28;20047;-69
2023/04/23 03:57:30;;;;;;;38.53;16.67;;;;;;;14.77;34.17;99205.06;5025754;28;20041;-69
2023/04/23 04:00:10;;;;;;;46.03;16.67;;;;;;;14.75;34.33;99210.63;5041524;28;20037;-69
2023/04/23 04:02:40;;;;;;;33.92;14.77;;;;;;;14.83;34.25;99209.63;5057479;28;20045;-69
2023/04/23 04:05:09;;;;;;;27.40;14.27;;;;;;;14.84;34.14;99213.94;5056377;28;20036;-70
2023/04/23 04:07:36;;;;;;;22.63;11.77;;;;;;;14.80;33.72;99212.69;5039690;28;20044;-69
2023/04/23 04:10:04;;;;;;;23.10;11.50;;;;;;;14.96;33.55;99223.91;5039837;28;20048;-69
2023/04/23 04:12:31;;;;;;;21.95;10.70;;;;;;;14.90;33.18;99224.69;5039704;28;20441;-69
2023/04/23 04:14:58;;;;;;;24.20;10.38;;;;;;;15.24;33.15;99218.53;5039291;28;20040;-69
2023/04/23 04:17:24;;;;;;;20.42;9.50;;;;;;;15.12;32.99;99228.13;5001920;28;20419;-70
2023/04/23 04:19:50;;;;;;;20.00;9.52;;;;;;;15.24;32.68;99231.91;5002509;28;20048;-68
2023/04/23 04:22:16;;;;;;;23.67;10.88;;;;;;;15.48;32.83;99235.97;5018754;28;20052;-69
2023/04/23 04:24:46;;;;;;;25.40;11.23;;;;;;;15.55;32.62;99231.47;5002375;28;20139;-70
2023/04/23 04:27:12;;;;;;;26.73;12.02;;;;;;;15.79;32.65;99239.00;5002672;28;20545;-70
2023/04/23 04:29:42;;;;;;;25.85;10.93;;;;;;;15.81;32.34;99232.41;5018414;28;20037;-69
2023/04/23 04:32:08;;;;;;;24.42;11.40;;;;;;;15.97;32.03;99240.09;5018269;28;20143;-70
2023/04/23 04:34:37;;;;;;;23.77;11.10;;;;;;;16.11;32.06;99235.56;5018594;28;20079;-69
2023/04/23 04:37:04;;;;;;;37.42;16.60;;;;;;;16.44;32.18;99242.66;5002351;28;20048;-70
2023/04/23 04:39:31;;;;;;;30.98;13.23;;;;;;;16.57;32.42;99240.00;5001919;28;20044;-69
2023/04/23 04:41:58;;;;;;;34.55;13.52;;;;;;;16.65;32.15;99242.47;5002076;28;20168;-69
2023/04/23 04:44:25;;;;;;;30.27;11.70;;;;;;;16.64;32.50;99245.34;5018471;28;20379;-71
2023/04/23 04:46:54;;;;;;;24.13;12.18;;;;;;;16.54;33.18;99243.06;5002339;28;20045;-69
2023/04/23 04:49:20;;;;;;;38.95;12.68;;;;;;;16.32;33.22;99246.97;5035590;28;20055;-69
2023/04/23 04:51:47;;;;;;;30.33;12.45;;;;;;;16.17;33.75;99245.47;5070883;28;20047;-70
2023/04/23 04:54:13;;;;;;;31.00;13.55;;;;;;;16.11;34.03;99249.81;5070563;28;20036;-70
2023/04/23 04:56:40;;;;;;;29.00;12.85;;;;;;;16.02;34.35;99245.63;5054415;28;20454;-70
2023/04/23 04:59:07;;;;;;;34.08;13.13;;;;;;;16.23;34.35;99253.53;5054859;28;20048;-69
2023/04/23 05:01:33;;;;;;;33.72;12.80;;;;;;;16.12;34.47;99247.94;5036494;28;20482;-67
2023/04/23 05:04:00;;;;;;;32.33;12.75;;;;;;;16.35;34.30;99251.91;5075020;28;20051;-69
2023/04/23 05:06:27;;;;;;;30.02;12.75;;;;;;;16.35;34.33;99251.91;5054785;28;20047;-69
2023/04/23 05:08:56;;;;;;;22.52;11.98;;;;;;;16.61;33.98;99253.81;5023011;28;20043;-71
2023/04/23 05:11:22;;;;;;;41.10;13.07;;;;;;;16.76;33.82;99262.47;5030095;28;20049;-68
2023/04/23 05:13:48;;;;;;;35.85;13.80;;;;;;;16.91;34.23;99267.63;5025368;28;20056;-68
2023/04/23 05:16:16;;;;;;;22.92;11.65;;;;;;;16.99;33.64;99270.13;5004169;28;20059;-69
2023/04/23 05:18:41;;;;;;;37.88;12.82;;;;;;;17.03;33.82;99274.03;5023891;28;20059;-69
2023/04/23 05:21:08;;;;;;;36.10;13.90;;;;;;;17.16;34.11;99268.66;5036798;28;20437;-70
2023/04/23 05:23:36;;;;;;;30.98;12.45;;;;;;;17.37;33.83;99277.28;5059056;28;20134;-70
2023/04/23 05:26:02;;;;;;;31.20;12.65;;;;;;;17.50;33.77;99279.13;5038461;28;20113;-67
2023/04/23 05:28:29;;;;;;;27.13;12.85;;;;;;;17.79;33.52;99275.94;5047904;28;20045;-69
2023/04/23 05:31:09;;;;;;;28.05;12.80;;;;;;;17.96;33.37;99283.31;5013782;28;20052;-68
2023/04/23 05:33:35;;;;;;;30.85;12.27;;;;;;;18.32;32.72;99282.69;5014114;28;20040;-69
2023/04/23 05:36:02;;;;;;;30.02;11.88;;;;;;;18.65;32.45;99277.13;5030022;28;20193;-69
2023/04/23 05:38:30;;;;;;;23.60;11.63;;;;;;;19.00;31.84;99270.22;5030798;28;20045;-69
2023/04/23 05:40:59;;;;;;;27.75;11.13;;;;;;;19.43;30.95;99279.16;5023979;28;20120;-70
2023/04/23 05:43:26;;;;;;;22.20;9.57;;;;;;;19.61;30.19;99293.47;5031081;28;20074;-68
2023/04/23 05:45:52;;;;;;;27.42;12.20;;;;;;;19.84;30.22;99287.38;5015033;28;20056;-67
2023/04/23 05:48:18;;;;;;;21.52;9.93;;;;;;;20.07;29.82;99288.34;5047108;28;20041;-69
2023/04/23 05:50:44;;;;;;;30.02;13.02;;;;;;;20.30;29.32;99293.03;5034106;28;20131;-68
2023/04/23 05:53:11;;;;;;;17.30;7.30;;;;;;;20.46;27.75;99299.66;5050390;28;20048;-69
2023/04/23 05:55:38;;;;;;;15.25;7.75;;;;;;;20.59;27.24;99297.59;5015103;28;20088;-70
2023/04/23 05:58:05;;;;;;;15.50;6.43;;;;;;;20.80;26.70;99302.47;5048239;28;20407;-69
2023/04/23 06:00:34;;;;;;;18.05;6.30;;;;;;;21.10;26.66;99300.53;4999136;28;20463;-69
2023/04/23 06:03:01;;;;;;;9.38;4.07;;;;;;;21.20;24.83;99299.97;4999225;28;20090;-69
2023/04/23 06:05:27;;;;;;;8.80;4.00;;;;;;;21.70;23.92;99301.94;4937649;28;20059;-72
2023/04/23 06:07:53;;;;;;;7.45;3.85;;;;;;;22.04;23.81;99311.06;4905981;29;20138;-68
2023/04/23 06:10:21;;;;;;;5.03;2.90;;;;;;;22.53;22.41;99307.72;4934686;29;20374;-70
2023/04/23 06:12:48;;;;;;;5.40;2.70;;;;;;;22.74;21.45;99308.94;4933555;29;20079;-69
2023/04/23 06:15:15;;;;;;;6.68;2.50;;;;;;;23.11;20.67;99301.97;4934114;28;20097;-70
2023/04/23 06:17:41;;;;;;;9.00;2.80;;;;;;;22.89;20.56;99311.91;4930398;29;20154;-70
2023/04/23 06:20:09;;;;;;;6.93;2.42;;;;;;;23.59;20.26;99314.94;4884424;29;20091;-70
2023/04/23 06:22:39;;;;;;;10.18;2.78;;;;;;;23.84;19.96;99309.84;4912001;29;20063;-68
2023/04/23 06:25:09;;;;;;;3.95;2.33;;;;;;;23.77;19.46;99318.16;4891574;29;20123;-71
2023/04/23 06:27:37;;;;;;;11.43;2.53;;;;;;;24.18;19.52;99317.66;4876493;29;20067;-70
2023/04/23 06:30:11;;;;;;;5.07;2.83;;;;;;;24.34;19.28;99321.38;4884565;29;20084;-69
2023/04/23 06:32:37;;;;;;;4.68;2.40;;;;;;;24.55;18.86;99323.22;4902755;29;20328;-69
2023/04/23 06:35:05;;;;;;;10.52;2.50;;;;;;;24.66;18.67;99325.00;4917547;29;20050;-69
2023/04/23 06:37:32;;;;;;;5.38;2.55;;;;;;;24.72;18.69;99323.97;4948530;28;20499;-72
2023/04/23 06:39:58;;;;;;;8.82;2.40;;;;;;;24.76;18.55;99311.50;4969702;28;20478;-73
2023/04/23 06:42:24;;;;;;;6.00;2.58;;;;;;;25.14;18.39;99324.88;4981472;28;20085;-70
2023/04/23 06:45:11;;;;;;;5.82;2.40;;;;;;;25.59;17.79;99327.13;5011999;28;20063;-68
2023/04/23 06:47:37;;;;;;;12.73;2.80;;;;;;;25.40;17.23;99325.94;5010728;28;20079;-69
2023/04/23 06:50:04;;;;;;;6.82;2.10;;;;;;;25.69;17.35;99336.22;4956272;28;20113;-68
2023/04/23 06:52:32;;;;;;;2.78;1.92;;;;;;;26.00;17.29;99334.50;4959752;28;20054;-69
2023/04/23 06:54:58;;;;;;;4.85;2.53;;;;;;;26.21;16.91;99336.22;4982945;28;20049;-69
2023/04/23 06:57:24;;;;;;;7.53;2.28;;;;;;;26.48;16.55;99343.13;4998886;28;20505;-69
2023/04/23 06:59:50;;;;;;;9.05;2.38;;;;;;;26.81;16.46;99338.31;4995781;28;20055;-71
2023/04/23 07:02:25;;;;;;;3.83;2.30;;;;;;;27.42;15.88;99345.47;4995244;28;20152;-69
2023/04/23 07:04:51;;;;;;;4.78;2.70;;;;;;;27.76;15.67;99328.22;4991385;28;20120;-69
2023/04/23 07:07:17;;;;;;;3.90;2.55;;;;;;;28.16;15.54;99335.50;4975179;28;20104;-69
2023/04/23 07:09:43;;;;;;;4.85;2.92;;;;;;;28.23;15.31;99343.41;4975351;28;20041;-70
2023/04/23 07:12:09;;;;;;;6.35;2.55;;;;;;;28.49;15.32;99340.31;4958275;28;20062;-69
2023/04/23 07:14:35;;;;;;;3.80;2.28;;;;;;;28.34;15.21;99336.81;4981825;28;20410;-69
2023/04/23 07:17:06;;;;;;;5.40;2.60;;;;;;;28.09;15.64;99332.25;4984620;28;20083;-70
2023/04/23 07:19:35;;;;;;;11.38;4.43;;;;;;;27.71;15.86;99328.25;4984564;28;20053;-70
2023/04/23 07:22:01;;;;;;;7.05;2.80;;;;;;;27.62;15.72;99335.34;4983103;28;20091;-70
2023/04/23 07:24:27;;;;;;;6.15;3.20;;;;;;;27.98;15.77;99344.31;4998646;28;20041;-70
2023/04/23 07:26:55;;;;;;;11.60;3.00;;;;;;;28.99;15.18;99337.25;4999236;28;20049;-69
2023/04/23 07:29:22;;;;;;;13.65;3.50;;;;;;;30.41;14.02;99343.00;5002637;28;20103;-68
2023/04/23 07:31:48;;;;;;;8.02;2.70;;;;;;;32.75;12.43;99333.66;5001262;28;20166;-69
2023/04/23 07:34:13;;;;;;;7.00;2.35;;;;;;;35.12;10.48;99342.59;5054579;28;20048;-69
2023/04/23 07:36:40;;;;;;;5.05;2.42;;;;;;;37.12;9.52;99338.00;5041906;28;20040;-70
2023/04/23 07:39:06;;;;;;;4.82;1.88;;;;;;;38.15;8.42;99346.06;5042275;28;20043;-70
2023/04/23 07:41:32;;;;;;;5.63;2.13;;;;;;;37.84;8.23;99337.47;5058579;28;20067;-70
2023/04/23 07:43:58;;;;;;;4.93;1.85;;;;;;;36.87;8.97;99335.44;5058401;28;20048;-70
2023/04/23 07:46:24;;;;;;;4.43;2.00;;;;;;;35.64;9.15;99352.44;5058822;28;20165;-70
2023/04/23 07:48:51;;;;;;;18.15;2.33;;;;;;;32.79;10.56;99325.56;5041972;28;20035;-69
2023/04/23 07:51:17;;;;;;;3.80;1.50;;;;;;;31.42;11.62;99331.34;5058464;28;20058;-69
2023/04/23 07:53:45;;;;;;;6.10;1.83;;;;;;;31.80;11.08;99330.13;5041404;28;20040;-69
2023/04/23 07:56:11;;;;;;;7.00;1.50;;;;;;;33.93;10.08;99338.44;5041644;28;20044;-70
2023/04/23 07:58:37;;;;;;;3.15;1.70;;;;;;;36.61;8.62;99332.03;5041182;28;20040;-70
2023/04/23 08:01:03;;;;;;;5.25;1.58;;;;;;;39.07;7.28;99332.31;5057229;28;20047;-71
2023/04/23 08:03:29;;;;;;;4.35;1.55;;;;;;;40.91;5.90;99331.13;5040260;28;20478;-72
2023/04/23 08:05:55;;;;;;;5.80;1.48;;;;;;;42.82;5.20;99325.88;5066033;28;20047;-71
2023/04/23 08:08:22;;;;;;;5.43;1.73;;;;;;;42.51;4.74;99324.22;5079771;28;20089;-71
2023/04/23 08:10:48;;;;;;;8.60;1.80;;;;;;;38.98;6.45;99321.34;5038847;28;20055;-70
2023/04/23 08:13:14;;;;;;;3.95;1.95;;;;;;;36.90;7.30;99320.94;5039655;28;20043;-70
2023/04/23 08:15:40;;;;;;;2.67;1.70;;;;;;;36.10;7.77;99313.75;5040235;28;20043;-70
2023/04/23 08:18:06;;;;;;;2.70;1.90;;;;;;;34.33;8.38;99310.81;5054565;28;20052;-70
2023/04/23 08:20:33;;;;;;;4.80;1.95;;;;;;;32.85;9.15;99310.56;5054526;28;20048;-69
2023/04/23 08:23:01;;;;;;;4.10;1.85;;;;;;;32.41;9.85;99305.81;5021887;28;20053;-71
2023/04/23 08:25:27;;;;;;;5.88;1.92;;;;;;;31.21;10.55;99317.13;5045673;28;20123;-69
2023/04/23 08:27:54;;;;;;;5.63;2.42;;;;;;;30.64;10.90;99306.50;5036056;28;20048;-69
2023/04/23 08:30:20;;;;;;;6.45;2.20;;;;;;;30.33;10.82;99313.50;5002924;28;20443;-70
2023/04/23 08:32:49;;;;;;;7.95;2.22;;;;;;;30.08;11.18;99319.25;5019105;28;20063;-69
2023/04/23 08:35:16;;;;;;;4.32;2.78;;;;;;;29.59;11.16;99309.38;5027352;28;20056;-69
2023/04/23 08:37:42;;;;;;;9.15;3.47;;;;;;;29.15;11.63;99310.63;5018135;28;20079;-69
2023/04/23 08:40:13;;;;;;;5.00;2.70;;;;;;;29.06;11.86;99306.88;5035014;28;20505;-69
2023/04/23 08:42:44;;;;;;;;;;;;;;;29.09;11.86;99307.09;5035655;28;20141;-69
2023/04/23 08:45:11;;;;;;;8.82;2.78;;;;;;;28.94;11.81;99299.00;5020066;28;20030;-69
2023/04/23 08:47:41;;;;;;;6.05;2.10;;;;;;;29.09;11.90;99314.50;5020135;28;20061;-68
2023/04/23 08:50:09;;;;;;;;;;;;;;;30.61;10.92;99318.06;5020673;28;20055;-69
2023/04/23 08:52:39;;;;;;;4.50;2.50;;;;;;;30.52;10.72;99295.16;5003430;28;19935;-68
2023/04/23 08:55:09;;;;;;;;;;;;;;;32.09;9.88;99306.72;5004326;28;20080;-70
2023/04/23 08:57:40;;;;;;;5.10;2.95;;;;;;;33.84;9.18;99314.69;5036213;28;19917;-69
2023/04/23 09:00:10;;;;;;;3.55;2.17;;;;;;;36.29;7.87;99318.88;5092481;28;20047;-71
2023/04/23 09:02:37;;;;;;;3.95;2.58;;;;;;;38.08;6.63;99320.84;5075082;28;20386;-71
2023/04/23 09:05:03;;;;;;;2.97;2.28;;;;;;;39.62;5.96;99322.00;5090853;28;20040;-69
2023/04/23 09:07:31;;;;;;;7.60;2.22;;;;;;;40.42;5.38;99322.47;5057541;28;20050;-67
2023/04/23 09:09:58;;;;;;;4.03;2.10;;;;;;;39.70;5.61;99320.22;5057597;28;20437;-69
2023/04/23 09:12:24;;;;;;;6.15;2.70;;;;;;;38.09;6.27;99314.13;5056491;28;20127;-71
2023/04/23 09:14:51;;;;;;;3.53;2.10;;;;;;;36.37;7.17;99304.19;5056845;28;20063;-69
2023/04/23 09:17:18;;;;;;;8.00;2.10;;;;;;;34.68;8.41;99301.47;5073861;28;20058;-70
2023/04/23 09:19:45;;;;;;;8.85;2.30;;;;;;;33.40;9.01;99298.25;5090182;28;20139;-68
2023/04/23 09:22:11;;;;;;;3.53;2.60;;;;;;;34.09;9.02;99280.94;5057136;28;20044;-69
2023/04/23 09:24:42;;;;;;;6.75;3.63;;;;;;;35.03;8.49;99289.34;5090564;28;20064;-69
2023/04/23 09:27:08;;;;;;;90.88;72.28;;;;;;;36.86;7.40;99306.13;5056828;28;20044;-69
2023/04/23 09:29:36;;;;;;;52.28;41.58;;;;;;;38.82;6.32;99311.31;5090232;28;20043;-71
2023/04/23 09:32:08;;;;;;;8.48;5.53;;;;;;;40.68;5.31;99311.56;5090484;28;20048;-72
2023/04/23 09:34:36;;;;;;;36.97;26.40;;;;;;;41.58;5.00;99309.06;5069476;28;20101;-71
2023/04/23 09:37:04;;;;;;;17.48;12.15;;;;;;;42.15;4.80;99313.66;5039317;28;20206;-69
2023/04/23 09:39:32;;;;;;;27.00;19.70;;;;;;;42.85;4.22;99305.56;5057106;28;20074;-70
2023/04/23 09:42:04;;;;;;;15.07;3.40;;;;;;;44.55;3.95;99304.88;5057006;28;20044;-70
2023/04/23 09:44:31;;;;;;;9.07;2.45;;;;;;;45.25;3.52;99307.25;5057109;28;20131;-70
2023/04/23 09:47:09;;;;;;;8.80;1.92;;;;;;;46.64;3.00;99290.09;5091114;28;20058;-70
2023/04/23 09:49:47;;;;;;;31.48;23.15;;;;;;;48.12;2.42;99295.69;5073771;28;20055;-70
2023/04/23 09:52:13;;;;;;;8.32;3.30;;;;;;;48.69;1.93;99299.53;5040424;28;20051;-70
2023/04/23 09:54:39;;;;;;;2.70;1.98;;;;;;;48.22;1.83;99294.78;5056608;28;20154;-70
2023/04/23 09:57:07;;;;;;;12.55;9.55;;;;;;;48.39;1.84;99293.81;5056899;28;20050;-70
2023/04/23 09:59:36;;;;;;;6.63;2.10;;;;;;;48.78;1.71;99285.72;5089780;28;20054;-70
2023/04/23 10:02:05;;;;;;;2.63;1.48;;;;;;;46.66;2.23;99279.22;5056397;28;20048;-70
2023/04/23 10:04:31;;;;;;;3.15;1.70;;;;;;;43.76;3.17;99281.44;5070171;28;20043;-70
2023/04/23 10:07:07;;;;;;;3.60;1.50;;;;;;;41.39;4.07;99270.06;5053348;28;20064;-69
2023/04/23 10:09:33;;;;;;;3.40;1.73;;;;;;;38.87;5.01;99256.34;5020978;28;20048;-70
2023/04/23 10:12:01;;;;;;;6.88;1.60;;;;;;;38.69;5.80;99252.22;5019805;28;20520;-69
2023/04/23 10:14:29;;;;;;;3.85;1.60;;;;;;;37.72;6.33;99254.25;5020827;28;20072;-70
2023/04/23 10:17:00;;;;;;;4.05;1.60;;;;;;;36.15;6.83;99246.38;5052966;28;20363;-69
2023/04/23 10:19:27;;;;;;;4.85;1.60;;;;;;;35.02;7.45;99252.63;5069466;28;20052;-69
2023/04/23 10:22:04;;;;;;;4.18;1.83;;;;;;;34.17;7.81;99250.59;5052790;28;20209;-69
2023/04/23 10:24:33;;;;;;;8.10;2.00;;;;;;;33.75;8.26;99254.00;5020746;28;20045;-70
2023/04/23 10:27:01;;;;;;;4.03;1.90;;;;;;;34.38;7.94;99248.09;5042642;28;20036;-69
2023/04/23 10:29:30;;;;;;;2.95;1.95;;;;;;;34.74;7.81;99248.56;5036762;28;20040;-70
2023/04/23 10:31:58;;;;;;;6.10;1.90;;;;;;;36.12;7.49;99258.13;5053188;28;20083;-69
2023/04/23 10:34:25;;;;;;;3.00;1.75;;;;;;;38.13;6.47;99250.47;5052860;28;20040;-70
2023/04/23 10:36:52;;;;;;;6.15;1.52;;;;;;;40.15;5.53;99256.56;5052983;28;20524;-70
2023/04/23 10:39:23;;;;;;;3.47;1.67;;;;;;;42.34;4.92;99265.31;5069353;28;20508;-70
2023/04/23 10:41:51;;;;;;;7.47;1.50;;;;;;;43.85;3.52;99267.91;5052656;28;20529;-70
2023/04/23 10:44:20;;;;;;;4.10;1.47;;;;;;;43.73;3.66;99262.63;5055083;28;20506;-70
2023/04/23 10:46:52;;;;;;;9.90;1.80;;;;;;;40.58;5.03;99256.38;5039957;28;20047;-70
2023/04/23 10:49:17;;;;;;;2.60;1.83;;;;;;;41.46;4.67;99253.44;5059679;28;20123;-70
2023/04/23 10:51:47;;;;;;;5.50;1.50;;;;;;;41.75;4.24;99249.16;5043362;28;20044;-71
2023/04/23 10:54:14;;;;;;;4.35;1.80;;;;;;;42.19;4.42;99243.91;5059938;28;20044;-71
2023/04/23 10:56:42;;;;;;;4.38;1.77;;;;;;;42.60;3.89;99240.94;5069528;28;20050;-70
2023/04/23 10:59:18;;;;;;;2.85;1.77;;;;;;;42.68;4.14;99247.41;5052996;28;20044;-67
2023/04/23 11:01:46;;;;;;;6.18;1.83;;;;;;;43.30;3.91;99252.19;5064395;28;20054;-67
2023/04/23 11:04:44;;;;;;;3.72;1.48;;;;;;;44.24;3.38;99238.22;5043279;28;20058;-70
2023/04/23 11:07:11;;;;;;;8.93;1.75;;;;;;;43.39;3.75;99241.50;5042167;28;20462;-69
2023/04/23 11:09:39;;;;;;;3.65;1.60;;;;;;;42.76;3.89;99238.78;5059320;28;20058;-71
2023/04/23 11:12:27;;;;;;;9.48;1.70;;;;;;;42.20;4.27;99232.38;5056588;28;20144;-70
2023/04/23 11:14:53;;;;;;;6.65;1.90;;;;;;;40.56;4.62;99230.91;5068260;28;20048;-69
2023/04/23 11:17:43;;;;;;;4.22;1.50;;;;;;;40.92;4.87;99218.53;5054557;28;20067;-70
2023/04/23 11:20:12;;;;;;;6.30;2.25;;;;;;;40.81;4.46;99225.88;5037859;28;20402;-70
2023/04/23 11:22:43;;;;;;;6.27;2.00;;;;;;;39.14;5.65;99224.16;5038069;28;20056;-70
2023/04/23 11:25:13;;;;;;;8.05;2.00;;;;;;;37.58;6.34;99228.00;5037920;28;20436;-70
2023/04/23 11:27:41;;;;;;;7.05;2.08;;;;;;;36.18;6.68;99220.81;5021399;28;20075;-71
2023/04/23 11:30:19;;;;;;;4.80;2.70;;;;;;;34.61;7.75;99221.97;5004786;28;20166;-70